NRT weather

Narita International Airport
Tokyo, Chiba Prefecture, Japan

Public forecast

Using degrees Celsius for public forecast. Weather courtesy of forecast.io.

METAR (pilot weather report)

Retrieved 2017/11/24 13:30 UTC (0 seconds ago):

RJAA 241330Z 23004KT 9999 FEW030 03/00 Q1018 BECMG 28005KT

TAF (pilot weather forecast)

Retrieved 2017/11/24 12:00 UTC (1 hour ago):

TAF RJAA 241107Z 2412/2518 28005KT 9999 FEW030 BECMG 2416/2418 20004KT BECMG 2421/2423 30010KT BECMG 2506/2509 10006KT